Time;durP1;ratioP1;P1;durP2;ratioP2;P2;SDS_P1;SDS_P2;PMS_P1;PMS_P2;Temp;Humidity;BMP_temperature;BMP_pressure;BME280_temperature;BME280_humidity;BME280_pressure;Samples;Min_cycle;Max_cycle;Signal;HPM_P1;HPM_P2
2021/12/26 00:02:14;;;;;;;;;;;;;;;-8.48;100.00;98549.97;4995388;28;20056;-71
2021/12/26 00:04:59;;;;;;;6.93;1.85;;;;;;;-8.48;100.00;98549.97;4977966;28;19928;-63
2021/12/26 00:07:45;;;;;;;4.43;1.80;;;;;;;-8.56;100.00;98543.69;5022877;28;20049;-63
2021/12/26 00:10:30;;;;;;;3.92;2.00;;;;;;;-8.56;100.00;98542.81;5011810;28;20049;-64
2021/12/26 00:13:19;;;;;;;;;;;;;;;-8.42;100.00;98545.03;4956953;28;20056;-64
2021/12/26 00:16:06;;;;;;;4.10;1.50;;;;;;;-8.28;100.00;98553.22;5011787;28;19971;-65
2021/12/26 00:18:51;;;;;;;3.38;1.63;;;;;;;-8.51;100.00;98544.72;5010171;28;20048;-64
2021/12/26 00:21:36;;;;;;;2.28;1.67;;;;;;;-8.59;100.00;98537.59;4996073;28;20048;-62
2021/12/26 00:24:21;;;;;;;5.55;1.98;;;;;;;-8.44;100.00;98538.06;5025962;28;20068;-58
2021/12/26 00:27:06;;;;;;;3.58;2.28;;;;;;;-8.48;100.00;98539.69;5010070;28;20057;-62
2021/12/26 00:29:52;;;;;;;4.15;1.65;;;;;;;-8.38;100.00;98535.72;5023950;28;20060;-63
2021/12/26 00:32:38;;;;;;;3.15;2.03;;;;;;;-8.38;100.00;98535.72;5013400;28;20103;-63
2021/12/26 00:35:24;;;;;;;3.03;1.60;;;;;;;-8.57;100.00;98531.69;4983236;28;20080;-66
2021/12/26 00:38:09;;;;;;;3.30;1.58;;;;;;;-8.91;100.00;98531.31;5003685;28;20071;-62
2021/12/26 00:40:54;;;;;;;3.58;1.33;;;;;;;-8.83;100.00;98537.59;5008518;28;20049;-62
2021/12/26 00:43:38;;;;;;;2.80;1.55;;;;;;;-8.87;100.00;98540.03;5009574;28;20057;-64
2021/12/26 00:46:23;;;;;;;;;;;;;;;-8.80;100.00;98531.69;5009409;28;20055;-68
2021/12/26 00:49:08;;;;;;;2.38;1.48;;;;;;;-8.98;100.00;98536.19;5008313;28;19936;-63
2021/12/26 00:51:53;;;;;;;6.70;2.20;;;;;;;-8.89;100.00;98542.53;5008443;28;20064;-64
2021/12/26 00:54:37;;;;;;;;;;;;;;;-8.63;100.00;98544.28;5009788;28;20114;-70
2021/12/26 00:57:22;;;;;;;4.40;2.00;;;;;;;-8.50;100.00;98551.63;4999274;28;20394;-63
2021/12/26 01:00:23;;;;;;;5.03;2.10;;;;;;;-8.40;100.00;98556.22;4992017;28;20986;-65
2021/12/26 01:03:10;;;;;;;3.25;1.77;;;;;;;-8.66;100.00;98559.63;5022875;28;20111;-62
2021/12/26 01:05:59;;;;;;;2.90;1.67;;;;;;;-8.40;100.00;98558.81;4994333;28;20044;-64
2021/12/26 01:08:48;;;;;;;4.47;1.95;;;;;;;-8.37;100.00;98565.72;4989356;28;20278;-62
2021/12/26 01:11:47;;;;;;;4.72;2.45;;;;;;;-8.31;100.00;98559.09;5024177;28;20152;-61
2021/12/26 01:14:33;;;;;;;5.45;2.30;;;;;;;-8.28;100.00;98558.34;5008280;28;20579;-63
2021/12/26 01:17:22;;;;;;;4.80;2.00;;;;;;;-8.23;100.00;98551.66;5020802;28;20061;-68
2021/12/26 01:21:16;;;;;;;5.15;2.17;;;;;;;-8.31;100.00;98550.53;4989081;28;20056;-64
2021/12/26 01:23:47;;;;;;;5.38;2.42;;;;;;;-8.22;100.00;98546.59;4992655;28;20482;-63
2021/12/26 01:26:32;;;;;;;4.05;2.30;;;;;;;-8.15;100.00;98539.91;5010824;28;20051;-64
2021/12/26 01:29:18;;;;;;;5.03;2.20;;;;;;;-7.93;100.00;98537.19;4992774;28;20045;-62
2021/12/26 01:32:06;;;;;;;4.95;2.28;;;;;;;-7.87;100.00;98537.38;4994152;28;20056;-67
2021/12/26 01:35:23;;;;;;;5.68;2.88;;;;;;;-7.92;100.00;98515.81;4973139;28;20114;-64
2021/12/26 01:38:37;;;;;;;4.68;2.05;;;;;;;-7.85;100.00;98516.03;4954735;28;20182;-66
2021/12/26 01:41:49;;;;;;;4.07;2.17;;;;;;;-7.74;100.00;98526.66;4949788;28;20093;-66
2021/12/26 01:44:49;;;;;;;4.63;2.03;;;;;;;-7.62;100.00;98512.47;4965732;28;20057;-60
2021/12/26 01:47:37;;;;;;;4.57;2.08;;;;;;;-7.45;100.00;98524.13;4938617;28;20117;-61
2021/12/26 01:50:23;;;;;;;3.85;1.90;;;;;;;-7.45;100.00;98523.25;4965860;28;20046;-58
2021/12/26 01:53:09;;;;;;;3.78;2.05;;;;;;;-7.43;100.00;98521.59;4953359;28;20053;-63
2021/12/26 01:55:55;;;;;;;2.67;1.55;;;;;;;-7.36;100.00;98519.25;4968277;28;20274;-61
2021/12/26 01:58:41;;;;;;;3.47;1.90;;;;;;;-7.46;100.00;98516.34;4939103;28;20428;-66
2021/12/26 02:01:39;;;;;;;3.30;1.40;;;;;;;-7.45;100.00;98511.25;4913917;29;20214;-66
2021/12/26 02:04:29;;;;;;;2.97;1.70;;;;;;;-7.44;100.00;98514.72;4944165;28;20062;-63
2021/12/26 02:07:14;;;;;;;3.70;1.55;;;;;;;-7.66;100.00;98507.19;4936456;28;20550;-61
2021/12/26 02:10:04;;;;;;;5.05;2.38;;;;;;;-7.69;100.00;98519.94;4927519;28;20125;-63
2021/12/26 02:12:49;;;;;;;5.95;2.10;;;;;;;-7.76;100.00;98518.03;4967329;28;20049;-68
2021/12/26 02:15:36;;;;;;;5.38;2.00;;;;;;;-7.81;100.00;98524.72;4992418;28;20581;-61
2021/12/26 02:18:31;;;;;;;3.40;1.92;;;;;;;-7.79;100.00;98515.34;4991518;28;20049;-62
2021/12/26 02:21:34;;;;;;;4.25;1.90;;;;;;;-7.74;100.00;98519.81;4993228;28;20051;-68
2021/12/26 02:24:26;;;;;;;4.30;2.05;;;;;;;-7.78;100.00;98523.13;4997788;28;20124;-65
2021/12/26 02:30:16;;;;;;;4.05;1.70;;;;;;;-7.55;100.00;98508.38;4991105;28;20049;-62
2021/12/26 02:33:04;;;;;;;4.57;1.85;;;;;;;-7.57;100.00;98518.63;4964060;28;20060;-67
2021/12/26 02:35:51;;;;;;;6.32;2.20;;;;;;;-7.66;100.00;98509.75;5006962;28;20052;-61
2021/12/26 02:38:37;;;;;;;3.75;1.90;;;;;;;-7.52;100.00;98509.31;4982892;28;20133;-62
2021/12/26 02:41:22;;;;;;;3.03;1.50;;;;;;;-7.59;100.00;98496.25;5008432;28;20468;-62
2021/12/26 02:44:08;;;;;;;2.92;2.00;;;;;;;-7.58;100.00;98490.28;5008562;28;20116;-62
2021/12/26 02:46:56;;;;;;;3.20;1.92;;;;;;;-7.43;100.00;98485.56;4978282;28;20095;-64
2021/12/26 02:49:41;;;;;;;4.47;1.85;;;;;;;-7.36;100.00;98496.09;4988176;28;20072;-61
2021/12/26 02:52:27;;;;;;;4.85;2.00;;;;;;;-7.36;100.00;98488.38;5005214;28;20079;-62
2021/12/26 02:55:15;;;;;;;3.17;1.80;;;;;;;-7.16;100.00;98496.66;4999932;28;20461;-59
2021/12/26 02:58:06;;;;;;;6.57;2.17;;;;;;;-7.21;100.00;98491.38;4997866;28;20090;-60
2021/12/26 03:00:56;;;;;;;3.92;1.70;;;;;;;-7.37;100.00;98486.63;4997654;28;20199;-64
2021/12/26 03:03:41;;;;;;;3.47;1.80;;;;;;;-7.27;100.00;98478.34;5026526;28;20148;-64
2021/12/26 03:06:36;;;;;;;3.35;1.80;;;;;;;-7.27;100.00;98480.03;5014512;28;20428;-64
2021/12/26 03:09:21;;;;;;;;;;;;;;;-7.33;100.00;98483.31;4999869;28;20060;-63
2021/12/26 03:12:09;;;;;;;3.75;1.85;;;;;;;-7.44;100.00;98479.53;5004831;28;19933;-62
2021/12/26 03:14:53;;;;;;;4.65;1.98;;;;;;;-7.20;100.00;98477.66;5008006;28;20084;-61
2021/12/26 03:17:39;;;;;;;3.70;1.70;;;;;;;-7.10;100.00;98489.09;4997938;28;20048;-64
2021/12/26 03:20:25;;;;;;;;;;;;;;;-7.20;100.00;98480.25;5011031;28;20775;-61
2021/12/26 03:23:14;;;;;;;4.15;1.65;;;;;;;-7.41;100.00;98482.22;5009193;28;20400;-61
2021/12/26 03:26:04;;;;;;;3.42;2.13;;;;;;;-7.56;100.00;98457.75;5021233;28;20051;-61
2021/12/26 03:28:49;;;;;;;4.35;1.90;;;;;;;-7.70;100.00;98466.75;5021372;28;20052;-62
2021/12/26 03:31:34;;;;;;;;;;;;;;;-7.57;100.00;98479.13;5003552;28;20083;-63
2021/12/26 03:34:18;;;;;;;3.50;2.15;;;;;;;-7.81;100.00;98460.41;5014361;28;19974;-62
2021/12/26 03:37:03;;;;;;;3.83;1.98;;;;;;;-7.80;100.00;98463.03;5026103;28;20112;-64
2021/12/26 03:39:48;;;;;;;6.70;2.35;;;;;;;-7.63;100.00;98463.53;4976046;28;20049;-63
2021/12/26 03:42:34;;;;;;;5.80;2.40;;;;;;;-7.63;100.00;98463.53;5020953;28;20047;-63
2021/12/26 03:45:22;;;;;;;5.10;2.15;;;;;;;-7.66;100.00;98458.31;5012011;28;20555;-64
2021/12/26 03:48:08;;;;;;;3.55;1.95;;;;;;;-7.73;100.00;98441.81;4988910;28;20061;-62
2021/12/26 03:50:55;;;;;;;2.70;1.67;;;;;;;-7.75;100.00;98440.88;4993499;28;20083;-64
2021/12/26 03:53:41;;;;;;;6.90;2.20;;;;;;;-7.71;100.00;98447.00;4991952;28;20141;-62
2021/12/26 03:56:27;;;;;;;4.38;2.40;;;;;;;-7.76;100.00;98440.88;5019021;28;20049;-68
2021/12/26 03:59:23;;;;;;;6.15;2.50;;;;;;;-7.68;100.00;98449.69;5012733;28;20124;-63
2021/12/26 04:02:11;;;;;;;3.83;2.50;;;;;;;-7.53;100.00;98444.94;4994415;28;20456;-62
2021/12/26 04:04:55;;;;;;;4.07;2.22;;;;;;;-7.55;100.00;98442.38;4975113;28;20052;-64
2021/12/26 04:07:41;;;;;;;8.60;3.35;;;;;;;-7.73;100.00;98423.81;4990973;28;20165;-63
2021/12/26 04:10:27;;;;;;;5.80;3.42;;;;;;;-7.61;100.00;98442.16;4989306;28;20104;-62
2021/12/26 04:13:11;;;;;;;;;;;;;;;-7.51;100.00;98435.59;4993408;28;20481;-63
2021/12/26 04:15:56;;;;;;;6.70;2.47;;;;;;;-7.79;100.00;98431.34;4990799;28;19974;-64
2021/12/26 04:18:41;;;;;;;5.50;3.00;;;;;;;-7.68;100.00;98435.09;5005374;28;20484;-71
2021/12/26 04:21:30;;;;;;;3.83;2.08;;;;;;;-7.64;100.00;98436.09;4993846;28;20068;-67
2021/12/26 04:24:18;;;;;;;4.10;2.00;;;;;;;-7.58;100.00;98447.41;5003258;28;20052;-63
2021/12/26 04:27:02;;;;;;;;;;;;;;;-7.60;100.00;98450.78;4989452;28;20513;-65
2021/12/26 04:29:48;;;;;;;5.75;2.10;;;;;;;-7.69;100.00;98435.06;5004039;28;20051;-64
2021/12/26 04:32:34;;;;;;;4.10;1.92;;;;;;;-7.69;100.00;98441.09;5006752;28;20422;-63
2021/12/26 04:35:20;;;;;;;3.55;2.25;;;;;;;-7.72;100.00;98443.56;4979387;28;20072;-65
2021/12/26 04:38:05;;;;;;;2.72;1.40;;;;;;;-7.75;100.00;98435.75;4996361;28;20495;-64
2021/12/26 04:40:52;;;;;;;4.43;2.15;;;;;;;-7.79;100.00;98415.06;4979412;28;20052;-61
2021/12/26 04:43:57;;;;;;;3.88;1.75;;;;;;;-7.68;100.00;98432.53;4991014;28;20057;-62
2021/12/26 04:46:49;;;;;;;4.47;2.50;;;;;;;-7.65;100.00;98432.63;4978507;28;20053;-63
2021/12/26 04:49:42;;;;;;;4.30;1.80;;;;;;;-7.60;100.00;98448.19;4991607;28;20104;-63
2021/12/26 04:52:27;;;;;;;3.72;2.20;;;;;;;-7.64;100.00;98423.22;4991041;28;20065;-62
2021/12/26 04:55:15;;;;;;;6.05;2.50;;;;;;;-7.50;100.00;98432.19;4991191;28;20167;-61
2021/12/26 04:58:00;;;;;;;3.95;2.05;;;;;;;-7.53;100.00;98434.66;4998851;28;20127;-64
2021/12/26 05:00:45;;;;;;;5.05;2.60;;;;;;;-7.53;100.00;98434.66;4997395;28;20048;-62
2021/12/26 05:03:31;;;;;;;4.65;2.45;;;;;;;-7.50;100.00;98430.50;5001214;28;20052;-66
2021/12/26 05:06:17;;;;;;;4.60;2.50;;;;;;;-7.55;100.00;98419.22;5012362;28;20442;-64
2021/12/26 05:09:02;;;;;;;6.15;2.25;;;;;;;-7.64;100.00;98411.22;5014712;28;20063;-63
2021/12/26 05:11:47;;;;;;;5.25;2.25;;;;;;;-7.53;100.00;98422.69;5001048;28;20049;-61
2021/12/26 05:14:32;;;;;;;4.50;2.38;;;;;;;-7.42;100.00;98446.13;5028212;28;20119;-61
2021/12/26 05:17:17;;;;;;;6.50;2.92;;;;;;;-7.38;100.00;98432.53;4997311;28;20832;-61
2021/12/26 05:20:05;;;;;;;4.20;2.30;;;;;;;-7.43;100.00;98432.41;5010443;28;20048;-63
2021/12/26 05:22:52;;;;;;;3.05;2.05;;;;;;;-7.39;100.00;98452.28;4998473;28;20052;-62
2021/12/26 05:25:38;;;;;;;4.07;2.10;;;;;;;-7.42;100.00;98456.44;5030015;28;20043;-63
2021/12/26 05:28:22;;;;;;;2.22;1.30;;;;;;;-7.35;100.00;98430.06;4994427;28;20060;-66
2021/12/26 05:31:08;;;;;;;3.15;1.80;;;;;;;-7.31;100.00;98463.66;4994197;28;20049;-61
2021/12/26 05:33:58;;;;;;;3.80;1.75;;;;;;;-7.36;100.00;98472.06;5014154;28;20083;-62
2021/12/26 05:36:43;;;;;;;5.43;2.55;;;;;;;-7.40;100.00;98453.06;4996949;28;20125;-64
2021/12/26 05:39:28;;;;;;;4.97;2.20;;;;;;;-7.26;100.00;98454.34;5007626;28;20049;-61
2021/12/26 05:42:16;;;;;;;4.60;1.92;;;;;;;-7.40;100.00;98445.34;5000962;28;20452;-65
2021/12/26 05:45:02;;;;;;;4.57;2.40;;;;;;;-7.47;100.00;98453.75;4999811;28;20051;-60
2021/12/26 05:47:48;;;;;;;4.57;2.55;;;;;;;-7.59;100.00;98458.53;4999564;28;20060;-59
2021/12/26 05:50:33;;;;;;;5.38;2.17;;;;;;;-7.36;100.00;98459.19;5014043;28;20091;-60
2021/12/26 05:53:18;;;;;;;;;;;;;;;-7.23;100.00;98448.41;4996916;28;20119;-59
2021/12/26 05:56:04;;;;;;;4.57;1.98;;;;;;;-7.29;100.00;98450.78;5013702;28;19926;-61
2021/12/26 05:58:50;;;;;;;4.53;1.95;;;;;;;-7.14;100.00;98456.38;5009738;28;20065;-65
2021/12/26 06:01:35;;;;;;;3.47;1.75;;;;;;;-7.08;100.00;98459.13;5008106;28;20101;-63
2021/12/26 06:04:20;;;;;;;3.90;1.92;;;;;;;-6.91;100.00;98450.16;5009224;28;20148;-62
2021/12/26 06:07:07;;;;;;;3.70;1.90;;;;;;;-6.67;100.00;98461.97;4992401;28;20564;-62
2021/12/26 06:09:52;;;;;;;4.95;2.30;;;;;;;-6.70;100.00;98461.00;5007742;28;20064;-61
2021/12/26 06:12:38;;;;;;;5.32;2.25;;;;;;;-6.61;100.00;98449.22;5007983;28;20057;-63
2021/12/26 06:15:23;;;;;;;5.07;2.10;;;;;;;-6.36;100.00;98446.44;4994446;28;20069;-67
2021/12/26 06:18:08;;;;;;;3.80;1.88;;;;;;;-6.35;100.00;98444.72;4963306;28;20061;-61
2021/12/26 06:21:13;;;;;;;4.93;2.60;;;;;;;-6.47;100.00;98436.69;4967378;28;20118;-60
2021/12/26 06:24:01;;;;;;;7.90;2.70;;;;;;;-6.47;100.00;98432.41;4965898;28;20053;-63
2021/12/26 06:26:48;;;;;;;5.03;1.92;;;;;;;-6.53;100.00;98450.28;4949525;29;20526;-61
2021/12/26 06:29:56;;;;;;;5.15;2.50;;;;;;;-6.66;100.00;98445.66;4957364;28;20220;-61
2021/12/26 06:33:16;;;;;;;4.30;2.10;;;;;;;-6.59;100.00;98447.56;4915567;29;20099;-61
2021/12/26 06:36:08;;;;;;;4.20;2.20;;;;;;;-6.61;100.00;98440.66;4901354;29;20066;-61
2021/12/26 06:39:12;;;;;;;6.10;2.15;;;;;;;-6.45;100.00;98428.16;4907721;29;20059;-65
2021/12/26 06:42:16;;;;;;;5.22;2.45;;;;;;;-6.56;100.00;98428.75;4894113;29;20529;-65
2021/12/26 06:45:01;;;;;;;4.10;2.10;;;;;;;-6.51;100.00;98427.13;4880989;29;20535;-68
2021/12/26 06:48:08;;;;;;;4.18;1.90;;;;;;;-6.47;100.00;98419.53;4889618;29;20067;-62
2021/12/26 06:50:54;;;;;;;7.75;2.35;;;;;;;-6.25;100.00;98420.91;4901247;29;20626;-63
2021/12/26 06:53:39;;;;;;;5.72;2.20;;;;;;;-6.01;100.00;98414.59;4898037;29;20482;-63
2021/12/26 06:56:24;;;;;;;8.07;3.03;;;;;;;-5.90;100.00;98420.00;4909187;29;20076;-64
2021/12/26 06:59:09;;;;;;;4.40;2.30;;;;;;;-5.83;100.00;98416.72;4917258;29;20570;-61
2021/12/26 07:01:56;;;;;;;3.60;1.95;;;;;;;-5.68;100.00;98425.66;4921213;28;20078;-60
2021/12/26 07:04:52;;;;;;;6.38;2.30;;;;;;;-5.73;100.00;98428.97;4952089;28;20132;-62
2021/12/26 07:07:43;;;;;;;4.63;2.22;;;;;;;-5.88;100.00;98416.63;4995887;28;20461;-55
2021/12/26 07:10:28;;;;;;;4.40;1.90;;;;;;;-5.82;100.00;98414.16;4988662;28;20556;-60
2021/12/26 07:13:13;;;;;;;5.00;1.70;;;;;;;-5.68;100.00;98402.41;5003334;28;20585;-64
2021/12/26 07:16:03;;;;;;;5.32;2.22;;;;;;;-5.54;100.00;98410.44;5007455;28;20052;-61
2021/12/26 07:18:51;;;;;;;8.57;2.47;;;;;;;-5.52;100.00;98416.50;4987698;28;20791;-65
2021/12/26 07:21:43;;;;;;;5.18;1.98;;;;;;;-5.80;100.00;98424.50;4985214;28;20107;-62
2021/12/26 07:24:32;;;;;;;3.75;1.90;;;;;;;-5.77;100.00;98406.50;4999793;28;20131;-73
2021/12/26 07:27:18;;;;;;;5.10;2.55;;;;;;;-6.07;100.00;98426.47;4972482;28;20088;-63
2021/12/26 07:30:27;;;;;;;5.72;2.60;;;;;;;-6.01;100.00;98417.16;4985544;28;20073;-59
2021/12/26 07:33:12;;;;;;;3.40;1.70;;;;;;;-6.04;100.00;98411.97;4987628;28;20600;-62
2021/12/26 07:36:00;;;;;;;4.22;2.45;;;;;;;-5.93;100.00;98407.03;5005999;28;20092;-65
2021/12/26 07:39:06;;;;;;;7.15;2.03;;;;;;;-5.93;100.00;98414.78;4992089;28;20072;-64
2021/12/26 07:41:51;;;;;;;4.05;2.00;;;;;;;-5.89;100.00;98422.59;4988727;28;20550;-63
2021/12/26 07:45:07;;;;;;;4.82;2.13;;;;;;;-5.88;100.00;98397.69;4966148;28;20438;-65
2021/12/26 07:48:12;;;;;;;7.47;2.50;;;;;;;-5.82;100.00;98403.84;4965756;28;20050;-59
2021/12/26 07:50:57;;;;;;;;;;;;;;;-5.89;100.00;98408.84;4953208;28;20046;-66
2021/12/26 07:54:01;;;;;;;5.68;1.88;;;;;;;-5.85;100.00;98408.94;4979943;28;19925;-63
2021/12/26 07:57:06;;;;;;;7.03;2.28;;;;;;;-5.98;100.00;98396.63;4981797;28;20045;-65
2021/12/26 08:00:11;;;;;;;4.25;2.38;;;;;;;-5.97;100.00;98400.94;4984635;28;20048;-64
2021/12/26 08:03:14;;;;;;;5.93;2.53;;;;;;;-6.23;100.00;98398.59;4983663;28;20073;-64
2021/12/26 08:06:20;;;;;;;4.55;2.30;;;;;;;-6.15;100.00;98403.13;4965566;28;20101;-63
2021/12/26 08:09:10;;;;;;;6.95;2.30;;;;;;;-6.06;100.00;98386.94;4971869;28;20525;-62
2021/12/26 08:11:54;;;;;;;5.50;2.42;;;;;;;-5.87;100.00;98382.25;4970065;28;20045;-68
2021/12/26 08:14:40;;;;;;;5.70;2.17;;;;;;;-5.75;100.00;98369.56;4952088;28;20192;-64
2021/12/26 08:17:24;;;;;;;4.53;1.85;;;;;;;-5.60;100.00;98375.06;4958707;28;20085;-66
2021/12/26 08:20:10;;;;;;;5.03;2.28;;;;;;;-5.67;100.00;98370.59;4966210;28;20558;-69
2021/12/26 08:22:57;;;;;;;6.13;2.35;;;;;;;-5.84;100.00;98376.28;4985516;28;20128;-65
2021/12/26 08:25:43;;;;;;;4.90;2.10;;;;;;;-5.84;100.00;98377.16;5006301;28;20069;-65
2021/12/26 08:28:28;;;;;;;5.35;2.17;;;;;;;-5.77;100.00;98373.81;5005877;28;20041;-64
2021/12/26 08:31:16;;;;;;;7.60;2.33;;;;;;;-5.76;100.00;98364.38;4989484;28;20084;-68
2021/12/26 08:34:00;;;;;;;6.63;2.30;;;;;;;-5.72;100.00;98361.91;4991617;28;20099;-63
2021/12/26 08:36:58;;;;;;;9.82;2.95;;;;;;;-6.00;100.00;98357.03;5004587;28;20468;-65
2021/12/26 08:39:46;;;;;;;4.63;2.35;;;;;;;-5.93;100.00;98360.63;5004031;28;20108;-67
2021/12/26 08:42:30;;;;;;;11.57;2.58;;;;;;;-5.83;100.00;98354.78;5005447;28;20056;-65
2021/12/26 08:45:15;;;;;;;4.40;2.28;;;;;;;-5.83;100.00;98342.78;5003771;28;20180;-67
2021/12/26 08:48:01;;;;;;;4.47;2.20;;;;;;;-5.77;100.00;98342.84;5006309;28;20057;-65
2021/12/26 08:50:46;;;;;;;5.68;2.33;;;;;;;-5.75;100.00;98342.88;4991966;28;20052;-65
2021/12/26 08:53:32;;;;;;;4.30;1.95;;;;;;;-5.56;100.00;98335.56;4979128;28;20057;-69
2021/12/26 08:56:16;;;;;;;4.25;2.03;;;;;;;-5.45;100.00;98341.78;5004981;28;20409;-69
2021/12/26 08:59:02;;;;;;;5.25;2.22;;;;;;;-5.46;100.00;98331.44;5017872;28;20061;-69
2021/12/26 09:01:47;;;;;;;3.92;2.00;;;;;;;-5.47;100.00;98325.41;4995975;28;20052;-65
2021/12/26 09:04:37;;;;;;;5.22;2.17;;;;;;;-5.60;100.00;98323.44;4995984;28;20090;-69
2021/12/26 09:07:22;;;;;;;4.97;2.08;;;;;;;-5.57;100.00;98323.47;5024375;28;20056;-73
2021/12/26 09:10:11;;;;;;;3.60;1.85;;;;;;;-5.25;100.00;98327.53;5009666;28;20429;-66
2021/12/26 09:12:56;;;;;;;5.15;2.30;;;;;;;-5.37;100.00;98334.19;4989646;28;20418;-67
2021/12/26 09:15:41;;;;;;;7.50;2.20;;;;;;;-5.42;100.00;98322.91;5017970;28;20140;-65
2021/12/26 09:18:28;;;;;;;4.45;2.20;;;;;;;-5.33;100.00;98323.94;5003477;28;20528;-69
2021/12/26 09:21:13;;;;;;;4.38;2.45;;;;;;;-5.17;100.00;98332.84;5011423;28;20060;-65
2021/12/26 09:23:58;;;;;;;3.42;1.95;;;;;;;-5.43;100.00;98322.03;4996439;28;20052;-66
2021/12/26 09:26:42;;;;;;;;;;;;;;;-5.28;100.00;98324.03;5008677;28;20044;-65
2021/12/26 09:29:32;;;;;;;6.82;1.92;;;;;;;-5.41;100.00;98322.91;5010822;28;19924;-65
2021/12/26 09:32:21;;;;;;;3.88;1.95;;;;;;;-5.57;100.00;98320.88;5015151;28;20203;-65
2021/12/26 09:35:07;;;;;;;4.80;2.33;;;;;;;-5.50;100.00;98312.41;4995951;28;20528;-64
2021/12/26 09:37:53;;;;;;;4.93;2.05;;;;;;;-5.43;100.00;98310.81;5024411;28;20059;-63
2021/12/26 09:40:39;;;;;;;5.65;2.70;;;;;;;-5.40;100.00;98305.72;5022697;28;20103;-63
2021/12/26 09:43:24;;;;;;;5.95;2.22;;;;;;;-5.29;100.00;98301.63;5024919;28;20435;-65
2021/12/26 09:46:09;;;;;;;5.45;2.13;;;;;;;-5.05;100.00;98304.66;5007395;28;20103;-67
2021/12/26 09:48:53;;;;;;;6.53;2.05;;;;;;;-5.08;100.00;98294.25;5012759;28;20504;-67
2021/12/26 09:51:38;;;;;;;6.03;2.00;;;;;;;-5.17;100.00;98305.28;4992333;28;20186;-67
2021/12/26 09:54:23;;;;;;;;;;;;;;;-5.08;100.00;98296.84;5010405;28;20370;-66
2021/12/26 09:57:08;;;;;;;4.28;2.45;;;;;;;-5.22;100.00;98296.59;5016520;28;19971;-67
2021/12/26 09:59:52;;;;;;;6.22;2.35;;;;;;;-5.12;100.00;98300.22;5013834;28;20100;-69
2021/12/26 10:02:38;;;;;;;7.32;2.33;;;;;;;-4.96;100.00;98289.28;5014697;28;20052;-68
2021/12/26 10:05:23;;;;;;;7.00;2.05;;;;;;;-4.97;100.00;98285.84;5026993;28;20563;-66
2021/12/26 10:08:08;;;;;;;;;;;;;;;-4.99;100.00;98274.59;5010489;28;20111;-66
2021/12/26 10:11:14;;;;;;;6.10;2.33;;;;;;;-5.05;100.00;98271.94;4996995;28;19928;-65
2021/12/26 10:14:03;;;;;;;6.43;2.72;;;;;;;-5.08;100.00;98278.75;5012072;28;20060;-65
2021/12/26 10:16:47;;;;;;;6.90;2.83;;;;;;;-4.90;100.00;98276.47;5028637;28;20547;-64
2021/12/26 10:19:34;;;;;;;6.20;3.07;;;;;;;-5.04;100.00;98265.91;5014575;28;20052;-68
2021/12/26 10:24:49;;;;;;;6.43;3.28;;;;;;;-5.10;100.00;98259.78;5008258;28;20046;-65
2021/12/26 10:27:34;;;;;;;7.00;2.95;;;;;;;-4.96;100.00;98238.50;4989248;28;20048;-66
2021/12/26 10:30:24;;;;;;;6.03;2.70;;;;;;;-4.78;100.00;98244.78;4993872;28;20084;-66
2021/12/26 10:33:09;;;;;;;5.47;2.20;;;;;;;-4.70;100.00;98225.97;5013042;28;20111;-67
2021/12/26 10:36:06;;;;;;;5.68;2.72;;;;;;;-4.60;100.00;98235.56;5028179;28;20122;-72
2021/12/26 10:39:14;;;;;;;5.32;2.50;;;;;;;-4.47;100.00;98240.09;4984666;28;20069;-71
2021/12/26 10:42:03;;;;;;;5.78;2.60;;;;;;;-4.62;100.00;98237.28;5028526;28;20125;-67
2021/12/26 10:45:11;;;;;;;7.63;2.60;;;;;;;-4.54;100.00;98233.09;5026408;28;20515;-68
2021/12/26 10:48:04;;;;;;;8.35;2.20;;;;;;;-4.65;100.00;98234.66;4998804;28;20094;-66
2021/12/26 10:50:49;;;;;;;4.97;2.40;;;;;;;-4.62;100.00;98226.94;5007002;28;20418;-63
2021/12/26 10:53:33;;;;;;;6.32;2.47;;;;;;;-4.82;100.00;98243.00;4996916;28;20772;-65
2021/12/26 10:56:21;;;;;;;6.32;2.30;;;;;;;-4.90;100.00;98237.72;5008766;28;20080;-70
2021/12/26 10:59:21;;;;;;;6.85;2.20;;;;;;;-4.56;100.00;98229.59;4997111;28;20073;-65
2021/12/26 11:02:10;;;;;;;7.20;2.28;;;;;;;-4.53;100.00;98223.59;5005423;28;20517;-64
2021/12/26 11:05:03;;;;;;;3.88;2.00;;;;;;;-4.55;100.00;98207.22;5005128;28;20137;-65
2021/12/26 11:07:57;;;;;;;6.00;2.25;;;;;;;-4.53;100.00;98200.34;4993559;28;20065;-68
2021/12/26 11:10:54;;;;;;;5.30;2.00;;;;;;;-4.44;100.00;98221.16;4991077;28;20426;-66
2021/12/26 11:13:40;;;;;;;5.63;2.30;;;;;;;-4.57;100.00;98214.94;5001364;28;20049;-70
2021/12/26 11:16:38;;;;;;;4.18;2.28;;;;;;;-4.42;100.00;98203.94;5001488;28;20142;-67
2021/12/26 11:19:41;;;;;;;4.18;2.10;;;;;;;-4.58;100.00;98213.22;5006727;28;20057;-66
2021/12/26 11:22:28;;;;;;;4.90;1.90;;;;;;;-4.73;100.00;98209.53;5005157;28;20517;-72
2021/12/26 11:25:13;;;;;;;5.30;2.17;;;;;;;-4.74;100.00;98211.25;5007479;28;20545;-68
2021/12/26 11:28:01;;;;;;;3.58;1.95;;;;;;;-4.73;100.00;98204.34;5006977;28;20232;-66
2021/12/26 11:30:46;;;;;;;5.35;2.40;;;;;;;-4.88;100.00;98191.25;5006253;28;20099;-66
2021/12/26 11:35:58;;;;;;;7.43;2.17;;;;;;;-4.74;100.00;98200.94;5005781;28;20046;-69
2021/12/26 11:38:43;;;;;;;7.10;2.47;;;;;;;-4.69;100.00;98194.09;5001129;28;20049;-68
2021/12/26 11:42:11;;;;;;;6.00;2.20;;;;;;;-4.64;100.00;98200.19;4993856;28;20919;-66
2021/12/26 11:45:31;;;;;;;7.15;2.40;;;;;;;-4.58;100.00;98191.66;4949065;28;20082;-65
2021/12/26 11:49:01;;;;;;;4.90;2.13;;;;;;;-4.79;100.00;98202.56;4952072;28;20098;-64
2021/12/26 11:52:30;;;;;;;5.72;2.13;;;;;;;-4.82;100.00;98187.03;4965843;28;20482;-65
2021/12/26 11:56:01;;;;;;;7.10;2.53;;;;;;;-4.71;100.00;98197.50;4950865;28;20451;-64
2021/12/26 11:59:16;;;;;;;4.97;2.38;;;;;;;-4.61;100.00;98200.25;4931316;28;20408;-65
2021/12/26 12:02:01;;;;;;;6.43;2.03;;;;;;;-4.68;100.00;98190.66;4954821;28;20057;-63
2021/12/26 12:05:11;;;;;;;5.15;2.00;;;;;;;-4.72;100.00;98196.63;4950111;28;20041;-62
2021/12/26 12:07:59;;;;;;;6.53;1.98;;;;;;;-4.95;100.00;98193.72;4964643;28;20053;-65
2021/12/26 12:10:57;;;;;;;5.32;2.25;;;;;;;-4.98;100.00;98170.41;4933678;28;20125;-63
2021/12/26 12:13:46;;;;;;;7.63;2.38;;;;;;;-4.82;100.00;98187.88;4940321;28;20510;-64
2021/12/26 12:16:33;;;;;;;9.38;2.58;;;;;;;-4.66;100.00;98177.75;4949877;28;20406;-64
2021/12/26 12:19:18;;;;;;;3.85;2.20;;;;;;;-4.62;100.00;98170.06;4945546;28;20104;-66
2021/12/26 12:22:06;;;;;;;;;;;;;;;-4.79;100.00;98183.63;4985730;28;20089;-65
2021/12/26 12:24:53;;;;;;;4.97;1.85;;;;;;;-4.83;100.00;98161.16;5005275;28;20341;-66
2021/12/26 12:28:05;;;;;;;4.82;2.13;;;;;;;-4.97;100.00;98172.19;4983648;28;20057;-68
2021/12/26 12:30:56;;;;;;;;;;;;;;;-4.76;100.00;98171.59;4971885;28;20100;-65
2021/12/26 12:33:41;;;;;;;14.98;5.40;;;;;;;-4.91;100.00;98173.94;4972604;28;20393;-65
2021/12/26 12:36:30;;;;;;;8.23;3.10;;;;;;;-4.78;100.00;98176.72;4972727;28;20470;-63
2021/12/26 12:39:23;;;;;;;11.00;4.05;;;;;;;-4.71;100.00;98169.06;5001928;28;20080;-65
2021/12/26 12:42:18;;;;;;;;;;;;;;;-4.67;100.00;98173.44;5005635;28;20053;-64
2021/12/26 12:45:12;;;;;;;7.57;2.70;;;;;;;-4.73;100.00;98170.75;4988081;28;19928;-63
2021/12/26 12:48:32;;;;;;;6.07;3.03;;;;;;;-4.69;100.00;98168.25;4986825;28;20085;-63
2021/12/26 12:51:18;;;;;;;5.55;2.28;;;;;;;-4.73;100.00;98165.59;4937821;28;20061;-67
2021/12/26 12:54:07;;;;;;;;;;;;;;;-4.76;100.00;98166.41;4926358;29;20142;-70
2021/12/26 12:56:53;;;;;;;5.53;2.70;;;;;;;-4.70;100.00;98168.22;4932837;29;19925;-66
2021/12/26 12:59:43;;;;;;;6.50;2.78;;;;;;;-4.90;100.00;98157.63;4942901;29;20126;-66
2021/12/26 13:02:34;;;;;;;7.93;3.08;;;;;;;-4.90;100.00;98157.63;4946025;28;20058;-65
2021/12/26 13:05:27;;;;;;;6.70;3.75;;;;;;;-4.87;100.00;98147.31;4962239;28;20089;-61
2021/12/26 13:08:16;;;;;;;7.68;2.13;;;;;;;-4.91;100.00;98161.03;4941924;29;20050;-66
2021/12/26 13:11:03;;;;;;;5.40;2.30;;;;;;;-4.97;100.00;98137.69;4947287;28;20097;-63
2021/12/26 13:13:56;;;;;;;5.22;2.40;;;;;;;-4.84;100.00;98149.09;4953734;28;20837;-67
2021/12/26 13:16:46;;;;;;;3.88;2.08;;;;;;;-4.86;100.00;98155.09;4940578;28;20490;-67
2021/12/26 13:19:31;;;;;;;10.18;2.72;;;;;;;-4.98;100.00;98146.31;4954436;28;20475;-66
2021/12/26 13:22:16;;;;;;;6.03;2.70;;;;;;;-4.80;100.00;98163.78;4951440;28;20470;-64
2021/12/26 13:25:01;;;;;;;;;;;;;;;-4.67;100.00;98145.00;4934832;29;20166;-70